EGHI/SOU METAR and TAF weather

Enter ICAO airport designator
Station Type Date Time Source
EGHI METAR 2021/03/09 10:20 UTC NOAA

EGHI 091020Z 30007KT 270V330 CAVOK 10/02 Q1022


Station Type Date Time Source
EGHI Decoded METAR 2021/03/09 10:20 UTC NOAA

Southampton / Weather Centre, United Kingdom (EGHI) 50-54N 001-24W 0M
Mar 09, 2021 - 05:20 AM EST / 2021.03.09 1020 UTC
Wind: from the WNW (300 degrees) at 8 MPH (7 KT) (direction variable):0
Visibility: greater than 7 mile(s):0
Temperature: 50 F (10 C)
Dew Point: 35 F (2 C)
Relative Humidity: 57%
Pressure (altimeter): 30.18 in. Hg (1022 hPa)
ob: EGHI 091020Z 30007KT 270V330 CAVOK 10/02 Q1022
cycle: 10

Station Type Date Time Source
EGHI TAF 2020/02/21 21:54 UTC NOAA

TAF EGHI 210345Z 2021/2123 CNL

Example: see airport list